x

Texas Tower #4 - 75 Nm East Of Long Beach, Nj (44066) Wave Buoy

5:50am - Mon 20th Oct 2014 All times are EDT. -4 hours from GMT.

  • Sig Wave height 4.6ft
  • Swell Direction
  • Peak Period 6s
  • Average Period 5s
  • Wind
    18mph, 22mph gusts
  • Sea Temp 66°f
  • Air Temp 51°f
  • Sea Pressure 1018.5mb
  • Texas Tower #4 - 75 Nm East Of Long Beach, Nj
  • Texas Tower #4 - 75 Nm East Of Long Beach, Nj

More Historic Weather Station data

Upgrade to MSW Pro to gain access to the past 30 days of data for over 8000 Wavebouys and Weather Stations around the globe.

Join Pro

Comparision Forecast

View Surf forecast
   
Mon 10/20 5:50am 4.5ft 6s 5s 18 22 mph 1018.5mb 66f 51f
4:50am 5ft 6s 5s 13 20 mph 1018.3mb 65f 51f
3:50am 5ft 7s 5s 18 22 mph 1017.8mb 65f 51f
2:50am 6ft 6s 5s 20 25 mph 1017.7mb 66f 51f
1:50am 6ft 6s 5s 18 25 mph 1017.5mb 66f 51f
12:50am 6.5ft 6s  -  20 27 mph 1017mb 66f 51f
Sun 10/19 10:50pm 7ft 7s 5s 22 29 mph 1016.3mb 66f 52f
9:50pm 7.5ft 6s 5s 25 31 mph 1015.8mb 66f 53f
8:50pm 8ft 7s 6s 25 31 mph 1015.3mb 66f 53f
7:50pm 8ft 7s 6s 27 34 mph 1014.5mb 66f 54f
6:50pm 7.5ft 7s 5s 27 31 mph 1013.6mb 66f 54f
5:50pm 8ft 6s 5s 27 34 mph 1012.4mb 66f 55f
4:50pm 7ft 6s 5s 27 36 mph 1011.7mb 66f 55f
3:50pm 8.5ft 7s 6s 25 31 mph 1011mb 66f 55f
2:50pm 8ft 7s 6s 27 31 mph 1010.6mb 66f 55f
1:50pm 8ft 6s 6s 25 31 mph 1009.8mb 66f 56f
12:50pm 7.5ft 6s 6s 25 31 mph 1009.4mb 66f 56f
11:50am 7ft 6s 5s 27 34 mph 1009.4mb 66f 56f
10:50am 6ft 6s 5s 27 31 mph 1009.1mb 66f 56f
9:50am 6ft 6s 5s 20 25 mph 1009.1mb 66f 58f
8:50am 5.5ft 6s 5s 25 29 mph 1007.3mb 66f 58f
7:50am 6ft 6s 5s 20 25 mph 1007.9mb 67f 59f
6:50am 6.5ft 6s 6s 18 22 mph 1007.5mb 67f 59f
5:50am 7ft 6s 6s 18 25 mph 1006.9mb 67f 59f
4:50am 7.5ft 11s 6s 20 25 mph 1006.5mb 67f 59f
3:50am 8ft 14s 6s 18 22 mph 1006.1mb 67f 60f
2:50am 8ft 14s 6s 18 22 mph 1005.9mb 67f 60f
1:50am 8ft 15s 6s 22 27 mph 1005.8mb 67f 60f
12:50am 8ft 6s 6s 22 27 mph 1005.8mb 67f 61f
Sat 10/18 11:50pm 8ft 15s 6s 22 27 mph 1005.7mb 67f 63f
10:50pm 7.5ft 11s 6s 20 27 mph 1005.6mb 67f 64f
9:50pm 6ft 9s 6s 25 29 mph 1005.1mb 67f 64f
8:50pm 7ft 13s 7s 25 31 mph 1004.6mb 67f 66f
7:50pm 7ft 14s 8s 13 18 mph 1004.1mb 67f 67f
6:50pm 7ft 14s 8s 13
mph
1003.6mb 67f 67f
5:50pm 7ft 11s 8s 11 16 mph 1002.8mb 68f 66f
4:50pm 8ft 14s 8s 11 13 mph 1002.5mb 68f 66f
3:50pm 7ft 14s 7s 11 16 mph 1002.2mb 68f 66f
2:50pm 7ft 11s 7s 13 18 mph 1001.9mb 68f 67f
1:50pm 7ft 13s 7s 18 22 mph 1001.9mb 67f 66f
12:50pm  -   -   -  16 18 mph 1002.2mb 67f 66f
11:50am 8ft 14s 8s 16 18 mph 1002.6mb 67f 66f
10:50am 9ft 14s 8s 13 16 mph 1002.6mb 67f 67f
9:50am 8.5ft 15s 8s 16 18 mph 1003mb 67f 67f
8:50am 8ft 15s 8s 16 20 mph 1003.3mb 67f 67f
7:50am 8.5ft 15s 8s 16 20 mph 1003.2mb 67f 67f
6:50am 8.5ft 16s 8s 16 18 mph 1003.3mb 67f 66f
5:50am 7.5ft 16s 8s 16 20 mph 1003.5mb 67f 66f
4:50am 8.5ft 16s 8s 16 18 mph 1003.9mb 67f 65f
3:50am 9ft 16s 8s 16 20 mph 1004.3mb 67f 65f
2:50am 7.5ft 14s 8s 16 18 mph 1004.9mb 67f 65f
1:50am 8ft 12s 7s 18 20 mph 1005.5mb 67f 65f
12:50am 7.5ft 10s 7s 18 20 mph 1006.1mb 67f 65f
Fri 10/17 11:50pm 7ft 10s 7s 20 22 mph 1006.7mb 67f 65f
10:50pm 7ft 11s 7s 18 22 mph 1007.1mb 67f 65f
9:50pm 8ft 11s 7s 18 22 mph 1007.1mb 67f 65f
8:50pm 6.5ft 9s 7s 18 22 mph 1007.1mb 67f 65f
7:50pm 7ft 10s 7s 18 20 mph 1007.4mb 67f 65f
6:50pm 7ft 11s 7s 18 22 mph 1007.2mb 68f 65f
5:50pm 6.5ft 11s 7s 16 20 mph 1007mb 68f 65f
4:50pm 6.5ft 8s 7s 16 20 mph 1007.1mb 68f 65f
3:50pm 7ft 9s 7s 18 20 mph 1007.3mb 68f 65f
2:50pm 7ft 11s 7s 16 18 mph 1007.4mb 68f 65f
1:50pm 6.5ft 10s 7s 13 18 mph 1007.7mb 68f 65f
12:50pm 6.5ft 9s 7s 16 18 mph 1007.9mb 68f 65f
11:50am 6.5ft 10s 7s 16 18 mph 1008.4mb 67f 65f
10:50am 7ft 9s 7s 13 16 mph 1008.4mb 67f 65f
9:50am 6ft 9s 7s 18 20 mph 1008.2mb 67f 65f
8:50am 6ft 10s 6s 13 18 mph 1007.8mb 67f 65f
7:50am 6.5ft 10s 6s 13 18 mph 1007.2mb 67f 65f
6:50am 7ft 9s 6s 16 20 mph 1006.3mb 67f 64f
5:50am 6ft 9s 6s 20 25 mph 1005.6mb 67f 65f
4:50am 7ft 9s 6s 20 22 mph 1005.1mb 67f 65f
3:50am 6ft 9s 6s 20 22 mph 1005.2mb 67f 65f
2:50am  -   -   -  13 18 mph 1005.3mb 67f 65f
1:50am 6.5ft 8s 6s 18 22 mph 1005.2mb 67f 66f
12:50am 7ft 8s 6s 13 18 mph 1005.8mb 67f 66f
Thu 10/16 11:50pm 7ft 9s 7s 13 16 mph 1006.1mb 67f 66f
10:50pm 7.5ft 8s 7s 16 20 mph 1006.4mb 67f 66f
9:50pm 8ft 9s 7s 16 18 mph 1006.7mb 67f 66f
8:50pm 8ft 9s 7s 13 16 mph 1007.6mb 67f 66f
7:50pm 7ft 9s 7s 11 13 mph 1007.1mb 67f 66f
6:50pm 8ft 9s 7s 11 13 mph 1006.7mb 67f 66f
5:50pm 7.5ft 8s 7s 11 13 mph 1006.8mb 67f 67f
4:50pm 8ft 9s 7s 11 13 mph 1006.3mb 67f 66f
3:50pm 8ft 9s 7s 16 20 mph 1006.9mb 66f 66f
2:50pm 9ft 9s 7s 16 18 mph 1006.9mb 66f 65f
1:50pm 9.5ft 9s 7s 18 22 mph 1007.5mb 66f 64f
12:50pm 8ft 9s 6s 25 29 mph 1007.1mb 66f 65f
11:50am 8.5ft 8s 6s 11 16 mph 1008.3mb 67f 65f
10:50am 8ft 8s 6s 22 27 mph 1008.8mb 67f 65f